createdAt,value
2017-12-27T00:01:35.773Z,4.12
2017-12-27T00:04:09.045Z,3.53
2017-12-27T00:06:42.427Z,6.37
2017-12-27T00:09:15.713Z,3.58
2017-12-27T00:11:49.850Z,3.05
2017-12-27T00:14:23.138Z,4.00
2017-12-27T00:16:56.582Z,5.82
2017-12-27T00:19:30.011Z,5.05
2017-12-27T00:22:03.330Z,4.60
2017-12-27T00:24:37.327Z,3.95
2017-12-27T00:30:12.437Z,3.50
2017-12-27T00:32:40.357Z,3.35
2017-12-27T00:35:08.134Z,5.03
2017-12-27T00:37:36.757Z,3.55
2017-12-27T00:40:04.373Z,5.00
2017-12-27T00:42:32.752Z,2.83
2017-12-27T00:45:00.410Z,3.35
2017-12-27T00:47:28.177Z,3.05
2017-12-27T00:49:55.845Z,3.67
2017-12-27T00:52:23.497Z,5.30
2017-12-27T00:54:51.106Z,4.40
2017-12-27T00:57:18.763Z,3.92
2017-12-27T00:59:46.380Z,3.47
2017-12-27T01:02:14.021Z,4.97
2017-12-27T01:04:41.681Z,7.30
2017-12-27T01:07:09.316Z,4.35
2017-12-27T01:09:37.074Z,4.18
2017-12-27T01:12:04.733Z,4.35
2017-12-27T01:14:32.429Z,6.05
2017-12-27T01:17:00.061Z,4.62
2017-12-27T01:19:27.750Z,4.68
2017-12-27T01:21:55.376Z,4.35
2017-12-27T01:24:23.761Z,4.28
2017-12-27T01:26:51.428Z,5.60
2017-12-27T01:29:19.038Z,5.93
2017-12-27T01:31:47.410Z,6.65
2017-12-27T01:34:15.073Z,5.75
2017-12-27T01:36:42.694Z,5.12
2017-12-27T01:39:10.322Z,5.87
2017-12-27T01:41:38.084Z,6.45
2017-12-27T01:44:06.673Z,5.75
2017-12-27T01:46:34.305Z,4.93
2017-12-27T01:49:02.729Z,9.15
2017-12-27T01:51:30.341Z,5.97
2017-12-27T01:53:58.087Z,8.88
2017-12-27T01:56:25.744Z,9.27
2017-12-27T01:58:53.374Z,4.18
2017-12-27T02:01:21.083Z,7.68
2017-12-27T02:03:48.726Z,6.22
2017-12-27T02:06:16.397Z,5.37
2017-12-27T02:08:44.776Z,6.80
2017-12-27T02:11:12.461Z,5.25
2017-12-27T02:13:40.095Z,5.40
2017-12-27T02:16:07.925Z,5.95
2017-12-27T02:18:35.566Z,5.93
2017-12-27T02:21:03.205Z,7.93
2017-12-27T02:23:31.581Z,5.72
2017-12-27T02:25:59.245Z,5.78
2017-12-27T02:28:27.028Z,7.97
2017-12-27T02:30:54.693Z,5.62
2017-12-27T02:33:23.130Z,6.35
2017-12-27T02:35:50.766Z,8.60
2017-12-27T02:38:18.381Z,6.68
2017-12-27T02:40:46.128Z,7.62
2017-12-27T02:43:13.801Z,9.80
2017-12-27T02:45:41.460Z,10.98
2017-12-27T02:48:09.075Z,10.35
2017-12-27T02:50:36.723Z,7.15
2017-12-27T02:53:04.381Z,8.93
2017-12-27T02:55:32.002Z,7.22
2017-12-27T02:57:59.668Z,8.43
2017-12-27T03:00:27.307Z,8.13
2017-12-27T03:02:54.934Z,8.63
2017-12-27T03:05:23.396Z,8.57
2017-12-27T03:07:51.768Z,9.65
2017-12-27T03:10:19.430Z,8.65
2017-12-27T03:12:47.169Z,8.93
2017-12-27T03:15:14.788Z,9.65
2017-12-27T03:17:42.483Z,12.02
2017-12-27T03:20:10.149Z,13.70
2017-12-27T03:22:37.898Z,13.10
2017-12-27T03:25:05.581Z,12.35
2017-12-27T03:27:33.982Z,14.27
2017-12-27T03:30:01.642Z,12.70
2017-12-27T03:32:29.280Z,12.40
2017-12-27T03:34:57.250Z,15.88
2017-12-27T03:37:24.915Z,13.45
2017-12-27T03:39:52.551Z,14.45
2017-12-27T03:42:20.212Z,13.52
2017-12-27T03:44:48.080Z,14.02
2017-12-27T03:47:15.736Z,14.95
2017-12-27T03:49:44.145Z,12.65
2017-12-27T03:52:11.776Z,14.80
2017-12-27T03:54:39.442Z,16.00
2017-12-27T03:57:07.069Z,12.65
2017-12-27T03:59:34.737Z,13.15
2017-12-27T04:02:02.353Z,13.85
2017-12-27T04:04:29.992Z,12.73
2017-12-27T04:06:58.417Z,10.65
2017-12-27T04:09:26.094Z,10.48
2017-12-27T04:11:53.795Z,14.30
2017-12-27T04:14:21.428Z,13.02
2017-12-27T04:16:49.046Z,13.23
2017-12-27T04:19:17.669Z,15.98
2017-12-27T04:21:45.288Z,13.70
2017-12-27T04:24:12.945Z,9.98
2017-12-27T04:26:40.581Z,14.35
2017-12-27T04:29:08.237Z,11.80
2017-12-27T04:31:35.928Z,12.95
2017-12-27T04:34:03.543Z,11.52
2017-12-27T04:36:31.229Z,11.18
2017-12-27T04:38:59.622Z,12.95
2017-12-27T04:41:27.237Z,10.88
2017-12-27T04:43:54.976Z,11.10
2017-12-27T04:46:22.582Z,11.48
2017-12-27T04:48:50.249Z,9.00
2017-12-27T04:51:18.108Z,8.60
2017-12-27T04:53:45.749Z,10.27
2017-12-27T04:56:13.453Z,8.60
2017-12-27T04:58:41.092Z,10.75
2017-12-27T05:01:08.761Z,10.98
2017-12-27T05:03:36.657Z,9.60
2017-12-27T05:06:04.277Z,9.73
2017-12-27T05:08:31.948Z,13.30
2017-12-27T05:10:59.599Z,8.60
2017-12-27T05:13:27.269Z,10.40
2017-12-27T05:15:55.676Z,12.95
2017-12-27T05:18:23.287Z,8.23
2017-12-27T05:20:50.975Z,8.65
2017-12-27T05:23:18.609Z,10.70
2017-12-27T05:25:46.269Z,7.82
2017-12-27T05:28:13.882Z,8.20
2017-12-27T05:30:41.519Z,8.25
2017-12-27T05:33:09.181Z,10.05
2017-12-27T05:35:37.041Z,7.22
2017-12-27T05:38:04.701Z,7.60
2017-12-27T05:40:32.310Z,10.05
2017-12-27T05:42:59.950Z,8.65
2017-12-27T05:45:28.379Z,10.43
2017-12-27T05:47:56.276Z,10.38
2017-12-27T05:50:24.691Z,8.30
2017-12-27T05:52:52.318Z,6.60
2017-12-27T05:55:19.940Z,7.18
2017-12-27T05:57:47.790Z,7.85
2017-12-27T06:00:15.422Z,8.38
2017-12-27T06:02:43.846Z,9.32
2017-12-27T06:05:11.462Z,6.32
2017-12-27T06:07:39.104Z,6.37
2017-12-27T06:10:06.761Z,5.65
2017-12-27T06:12:34.428Z,6.87
2017-12-27T06:15:02.089Z,4.93
2017-12-27T06:17:29.720Z,5.40
2017-12-27T06:19:57.330Z,6.10
2017-12-27T06:22:25.038Z,4.97
2017-12-27T06:24:52.661Z,3.95
2017-12-27T06:27:20.312Z,4.32
2017-12-27T06:29:48.006Z,5.03
2017-12-27T06:32:16.385Z,7.47
2017-12-27T06:34:44.063Z,5.10
2017-12-27T06:37:11.677Z,7.00
2017-12-27T06:39:39.335Z,8.55
2017-12-27T06:42:07.193Z,7.00
2017-12-27T06:44:35.631Z,6.78
2017-12-27T06:47:03.277Z,7.10
2017-12-27T06:49:30.897Z,10.40
2017-12-27T06:51:59.316Z,9.30
2017-12-27T06:54:27.123Z,9.10
2017-12-27T06:56:55.504Z,9.63
2017-12-27T06:59:23.170Z,11.75
2017-12-27T07:01:50.803Z,9.50
2017-12-27T07:04:18.471Z,12.95
2017-12-27T07:06:46.121Z,9.55
2017-12-27T07:09:13.784Z,9.77
2017-12-27T07:11:41.438Z,8.95
2017-12-27T07:14:09.061Z,9.60
2017-12-27T07:16:36.804Z,11.82
2017-12-27T07:19:04.429Z,11.68
2017-12-27T07:21:32.043Z,12.13
2017-12-27T07:23:59.725Z,10.05
2017-12-27T07:26:27.357Z,15.60
2017-12-27T07:28:55.863Z,11.68
2017-12-27T07:31:24.372Z,11.32
2017-12-27T07:33:51.976Z,10.20
2017-12-27T07:36:19.643Z,10.52
2017-12-27T07:38:47.311Z,13.52
2017-12-27T07:41:15.020Z,12.52
2017-12-27T07:43:42.643Z,9.90
2017-12-27T07:46:10.245Z,12.20
2017-12-27T07:48:37.957Z,11.30
2017-12-27T07:51:05.598Z,11.77
2017-12-27T07:53:33.261Z,12.13
2017-12-27T07:56:00.961Z,12.25
2017-12-27T07:58:28.616Z,9.75
2017-12-27T08:00:56.303Z,9.07
2017-12-27T08:03:23.949Z,9.38
2017-12-27T08:05:51.630Z,7.45
2017-12-27T08:08:20.051Z,11.75
2017-12-27T08:10:47.733Z,10.23
2017-12-27T08:13:15.389Z,10.73
2017-12-27T08:15:43.029Z,8.20
2017-12-27T08:18:10.691Z,8.60
2017-12-27T08:20:38.649Z,8.52
2017-12-27T08:23:07.185Z,8.55
2017-12-27T08:25:34.858Z,9.27
2017-12-27T08:28:03.237Z,8.13
2017-12-27T08:30:30.899Z,8.95
2017-12-27T08:32:58.610Z,8.10
2017-12-27T08:35:26.245Z,7.60
2017-12-27T08:37:53.933Z,7.43
2017-12-27T08:40:21.557Z,7.75
2017-12-27T08:42:49.972Z,6.75
2017-12-27T08:45:17.765Z,7.32
2017-12-27T08:47:45.400Z,8.02
2017-12-27T08:50:13.055Z,10.23
2017-12-27T08:52:40.694Z,8.20
2017-12-27T08:55:08.340Z,8.88
2017-12-27T08:57:36.129Z,9.77
2017-12-27T09:00:03.793Z,11.55
2017-12-27T09:02:31.465Z,9.07
2017-12-27T09:04:59.142Z,12.05
2017-12-27T09:07:27.494Z,13.32
2017-12-27T09:09:55.122Z,11.52
2017-12-27T09:12:22.753Z,9.73
2017-12-27T09:14:50.401Z,11.12
2017-12-27T09:17:18.230Z,11.57
2017-12-27T09:19:45.914Z,10.75
2017-12-27T09:22:13.538Z,13.60
2017-12-27T09:24:41.167Z,11.70
2017-12-27T09:27:08.828Z,10.18
2017-12-27T09:29:36.697Z,12.25
2017-12-27T09:32:04.358Z,12.32
2017-12-27T09:34:32.017Z,10.13
2017-12-27T09:36:59.670Z,11.02
2017-12-27T09:39:27.338Z,12.02
2017-12-27T09:41:55.027Z,13.50
2017-12-27T09:44:22.709Z,12.30
2017-12-27T09:46:51.114Z,14.43
2017-12-27T09:49:18.725Z,15.35
2017-12-27T09:51:47.225Z,13.55
2017-12-27T09:54:14.848Z,11.90
2017-12-27T09:56:43.300Z,13.77
2017-12-27T09:59:10.934Z,13.18
2017-12-27T10:01:38.570Z,15.27
2017-12-27T10:04:06.357Z,18.48
2017-12-27T10:06:34.047Z,14.40
2017-12-27T10:09:01.707Z,14.15
2017-12-27T10:11:29.341Z,16.05
2017-12-27T10:13:57.544Z,16.92
2017-12-27T10:16:25.209Z,16.33
2017-12-27T10:18:53.597Z,16.05
2017-12-27T10:21:21.273Z,16.98
2017-12-27T10:23:48.917Z,16.58
2017-12-27T10:26:16.702Z,16.75
2017-12-27T10:28:44.363Z,17.67
2017-12-27T10:31:12.813Z,20.50
2017-12-27T10:33:41.521Z,17.10
2017-12-27T10:36:09.160Z,18.67
2017-12-27T10:38:37.091Z,18.33
2017-12-27T10:41:04.757Z,17.60
2017-12-27T10:43:32.401Z,18.27
2017-12-27T10:46:00.058Z,16.15
2017-12-27T10:48:28.421Z,18.40
2017-12-27T10:50:56.339Z,19.10
2017-12-27T10:53:24.765Z,16.20
2017-12-27T10:55:52.399Z,15.60
2017-12-27T10:58:20.062Z,15.82
2017-12-27T11:00:47.899Z,16.83
2017-12-27T11:03:15.529Z,18.50
2017-12-27T11:05:43.209Z,19.77
2017-12-27T11:08:10.831Z,16.90
2017-12-27T11:10:38.491Z,15.82
2017-12-27T11:13:06.238Z,18.20
2017-12-27T11:15:33.868Z,16.92
2017-12-27T11:18:01.558Z,21.90
2017-12-27T11:20:29.210Z,19.42
2017-12-27T11:22:57.186Z,15.82
2017-12-27T11:25:25.574Z,19.42
2017-12-27T11:27:53.216Z,18.62
2017-12-27T11:30:20.914Z,17.83
2017-12-27T11:32:48.550Z,18.00
2017-12-27T11:35:16.324Z,16.98
2017-12-27T11:37:43.941Z,15.52
2017-12-27T11:40:11.594Z,16.52
2017-12-27T11:42:39.251Z,17.25
2017-12-27T11:45:07.168Z,16.87
2017-12-27T11:47:34.820Z,16.30
2017-12-27T11:50:02.425Z,14.60
2017-12-27T11:52:30.853Z,15.30
2017-12-27T11:54:58.521Z,18.40
2017-12-27T11:57:26.227Z,15.82
2017-12-27T11:59:53.942Z,17.42
2017-12-27T12:02:22.349Z,18.23
2017-12-27T12:04:49.990Z,15.02
2017-12-27T12:07:17.776Z,17.80
2017-12-27T12:09:45.408Z,16.87
2017-12-27T12:12:13.077Z,14.77
2017-12-27T12:14:40.718Z,14.68
2017-12-27T12:17:08.342Z,16.12
2017-12-27T12:19:36.234Z,16.10
2017-12-27T12:22:03.864Z,16.98
2017-12-27T12:24:32.310Z,15.52
2017-12-27T12:26:59.934Z,16.75
2017-12-27T12:29:27.732Z,17.92
2017-12-27T12:31:56.958Z,17.70
2017-12-27T12:34:24.595Z,15.50
2017-12-27T12:36:52.258Z,14.65
2017-12-27T12:39:19.889Z,16.35
2017-12-27T12:41:47.610Z,15.55
2017-12-27T12:44:16.585Z,16.90
2017-12-27T12:46:44.230Z,15.35
2017-12-27T12:49:11.880Z,15.30
2017-12-27T12:51:39.526Z,15.00
2017-12-27T12:54:08.101Z,13.57
2017-12-27T12:56:35.768Z,15.40
2017-12-27T12:59:03.388Z,12.85
2017-12-27T13:01:31.811Z,14.90
2017-12-27T13:03:59.429Z,15.48
2017-12-27T13:06:27.196Z,14.45
2017-12-27T13:08:54.865Z,14.45
2017-12-27T13:11:22.488Z,14.60
2017-12-27T13:13:50.239Z,15.60
2017-12-27T13:16:18.053Z,13.82
2017-12-27T13:18:45.684Z,14.13
2017-12-27T13:21:13.377Z,15.82
2017-12-27T13:23:41.012Z,17.90
2017-12-27T13:26:08.675Z,16.27
2017-12-27T13:28:36.328Z,17.08
2017-12-27T13:31:03.971Z,16.60
2017-12-27T13:33:31.658Z,16.08
2017-12-27T13:36:00.083Z,15.63
2017-12-27T13:38:27.813Z,16.05
2017-12-27T13:40:55.681Z,16.45
2017-12-27T13:43:23.341Z,17.70
2017-12-27T13:45:51.094Z,14.93
2017-12-27T13:48:18.753Z,15.20
2017-12-27T13:50:46.657Z,16.45
2017-12-27T13:53:14.281Z,15.60
2017-12-27T13:55:42.663Z,14.80
2017-12-27T13:58:10.336Z,16.05
2017-12-27T14:00:38.074Z,16.15
2017-12-27T14:03:05.749Z,16.67
2017-12-27T14:05:33.370Z,18.95
2017-12-27T14:08:01.030Z,16.73
2017-12-27T14:10:28.714Z,17.52
2017-12-27T14:12:56.478Z,17.10
2017-12-27T14:15:24.903Z,17.50
2017-12-27T14:17:52.541Z,21.65
2017-12-27T14:20:20.174Z,17.62
2017-12-27T14:22:48.170Z,17.08
2017-12-27T14:25:15.801Z,16.85
2017-12-27T14:27:43.509Z,17.40
2017-12-27T14:30:11.142Z,19.83
2017-12-27T14:32:38.792Z,19.65
2017-12-27T14:35:06.709Z,18.05
2017-12-27T14:37:34.339Z,19.10
2017-12-27T14:40:02.909Z,18.48
2017-12-27T14:42:30.538Z,19.37
2017-12-27T14:44:58.323Z,17.58
2017-12-27T14:47:26.029Z,19.27
2017-12-27T14:49:53.803Z,16.90
2017-12-27T14:52:21.455Z,17.77
2017-12-27T14:54:49.094Z,18.52
2017-12-27T14:57:16.745Z,16.48
2017-12-27T14:59:44.417Z,18.65
2017-12-27T15:02:12.055Z,17.05
2017-12-27T15:04:39.717Z,16.60
2017-12-27T15:07:08.116Z,17.20
2017-12-27T15:09:35.800Z,19.15
2017-12-27T15:12:03.475Z,17.37
2017-12-27T15:14:31.881Z,19.20
2017-12-27T15:16:59.561Z,20.33
2017-12-27T15:19:27.199Z,19.33
2017-12-27T15:21:54.832Z,23.83
2017-12-27T15:24:22.500Z,18.60
2017-12-27T15:26:50.937Z,19.55
2017-12-27T15:29:18.610Z,21.30
2017-12-27T15:31:46.280Z,22.37
2017-12-27T15:34:14.665Z,22.60
2017-12-27T15:36:42.405Z,23.20
2017-12-27T15:39:10.128Z,21.80
2017-12-27T15:41:37.814Z,18.30
2017-12-27T15:44:05.455Z,18.83
2017-12-27T15:46:33.089Z,22.65
2017-12-27T15:49:00.750Z,19.17
2017-12-27T15:51:28.386Z,23.33
2017-12-27T15:53:57.131Z,21.55
2017-12-27T15:56:24.770Z,20.10
2017-12-27T15:58:52.401Z,20.52
2017-12-27T16:01:20.585Z,20.55
2017-12-27T16:03:48.207Z,19.58
2017-12-27T16:06:15.867Z,19.77
2017-12-27T16:08:43.499Z,20.00
2017-12-27T16:11:11.120Z,18.27
2017-12-27T16:13:38.779Z,21.37
2017-12-27T16:16:06.653Z,20.10
2017-12-27T16:18:34.302Z,24.12
2017-12-27T16:21:01.944Z,20.37
2017-12-27T16:23:29.606Z,18.73
2017-12-27T16:25:57.282Z,18.98
2017-12-27T16:28:25.817Z,18.67
2017-12-27T16:30:53.490Z,20.50
2017-12-27T16:33:21.133Z,20.45
2017-12-27T16:35:49.544Z,22.40
2017-12-27T16:38:17.223Z,17.17
2017-12-27T16:40:44.861Z,18.20
2017-12-27T16:43:12.662Z,19.50
2017-12-27T16:45:41.087Z,17.85
2017-12-27T16:48:08.717Z,18.20
2017-12-27T16:50:36.722Z,17.15
2017-12-27T16:53:04.370Z,17.17
2017-12-27T16:55:32.125Z,16.50
2017-12-27T16:57:59.829Z,16.17
2017-12-27T17:00:27.695Z,16.85
2017-12-27T17:02:57.380Z,18.90
2017-12-27T17:05:25.002Z,18.62
2017-12-27T17:07:53.061Z,19.62
2017-12-27T17:10:20.697Z,18.73
2017-12-27T17:12:48.326Z,16.70
2017-12-27T17:15:17.943Z,18.90
2017-12-27T17:17:45.577Z,17.10
2017-12-27T17:20:13.260Z,17.37
2017-12-27T17:22:40.889Z,18.27
2017-12-27T17:25:10.157Z,16.98
2017-12-27T17:27:37.982Z,19.02
2017-12-27T17:30:06.252Z,19.33
2017-12-27T17:32:33.923Z,16.80
2017-12-27T17:35:01.550Z,18.00
2017-12-27T17:37:29.177Z,19.27
2017-12-27T17:39:57.060Z,19.20
2017-12-27T17:42:26.672Z,19.33
2017-12-27T17:44:54.330Z,17.77
2017-12-27T17:47:21.968Z,20.05
2017-12-27T17:49:49.613Z,18.15
2017-12-27T17:52:17.274Z,19.27
2017-12-27T17:54:46.733Z,19.85
2017-12-27T17:57:14.393Z,19.00
2017-12-27T17:59:43.057Z,18.73
2017-12-27T18:02:10.705Z,19.92
2017-12-27T18:04:38.364Z,17.83
2017-12-27T18:07:06.075Z,19.10
2017-12-27T18:09:34.650Z,19.52
2017-12-27T18:12:02.276Z,18.15
2017-12-27T18:14:29.938Z,17.62
2017-12-27T18:16:59.384Z,17.52
2017-12-27T18:19:27.949Z,19.62
2017-12-27T18:21:56.368Z,19.12
2017-12-27T18:24:24.009Z,17.42
2017-12-27T18:26:53.523Z,22.77
2017-12-27T18:29:21.165Z,16.50
2017-12-27T18:31:48.798Z,17.95
2017-12-27T18:34:16.680Z,16.55
2017-12-27T18:36:46.791Z,17.40
2017-12-27T18:39:14.429Z,16.70
2017-12-27T18:41:42.134Z,19.02
2017-12-27T18:44:09.778Z,17.55
2017-12-27T18:46:37.454Z,18.10
2017-12-27T18:49:07.005Z,18.25
2017-12-27T18:51:34.641Z,19.20
2017-12-27T18:54:02.322Z,17.80
2017-12-27T18:56:29.980Z,17.37
2017-12-27T18:58:58.279Z,19.73
2017-12-27T19:01:26.799Z,17.52
2017-12-27T19:03:54.421Z,15.90
2017-12-27T19:06:22.088Z,19.17
2017-12-27T19:08:49.723Z,17.55
2017-12-27T19:11:19.498Z,18.55
2017-12-27T19:13:47.218Z,18.15
2017-12-27T19:16:14.862Z,18.02
2017-12-27T19:18:42.549Z,17.60
2017-12-27T19:21:11.214Z,17.30
2017-12-27T19:23:39.634Z,17.05
2017-12-27T19:26:07.277Z,17.87
2017-12-27T19:28:34.905Z,15.73
2017-12-27T19:31:04.289Z,18.65
2017-12-27T19:33:32.349Z,15.80
2017-12-27T19:36:00.080Z,16.33
2017-12-27T19:38:27.802Z,19.55
2017-12-27T19:40:57.989Z,15.07
2017-12-27T19:43:26.636Z,16.80
2017-12-27T19:45:54.266Z,15.95
2017-12-27T19:48:21.910Z,17.87
2017-12-27T19:50:50.615Z,16.15
2017-12-27T19:53:18.928Z,16.95
2017-12-27T19:55:46.834Z,17.05
2017-12-27T19:58:14.468Z,15.43
2017-12-27T20:00:42.138Z,16.12
2017-12-27T20:03:11.128Z,17.08
2017-12-27T20:05:39.536Z,15.50
2017-12-27T20:08:07.198Z,15.18
2017-12-27T20:10:34.826Z,15.85
2017-12-27T20:13:02.485Z,16.95
2017-12-27T20:15:30.149Z,15.43
2017-12-27T20:17:57.830Z,14.63
2017-12-27T20:20:26.271Z,16.12
2017-12-27T20:22:54.416Z,14.75
2017-12-27T20:25:23.148Z,15.55
2017-12-27T20:27:50.860Z,13.93
2017-12-27T20:30:19.287Z,15.55
2017-12-27T20:32:47.178Z,15.82
2017-12-27T20:35:17.093Z,17.23
2017-12-27T20:37:46.370Z,14.25
2017-12-27T20:40:14.757Z,15.25
2017-12-27T20:42:42.521Z,13.95
2017-12-27T20:45:10.196Z,17.40
2017-12-27T20:47:40.012Z,15.07
2017-12-27T20:50:08.455Z,14.87
2017-12-27T20:52:36.234Z,15.75
2017-12-27T20:55:04.001Z,15.27
2017-12-27T20:57:34.322Z,18.40
2017-12-27T21:00:01.958Z,17.62
2017-12-27T21:02:30.378Z,15.73
2017-12-27T21:04:58.127Z,15.18
2017-12-27T21:07:27.328Z,14.80
2017-12-27T21:09:55.002Z,14.60
2017-12-27T21:12:23.419Z,12.80
2017-12-27T21:14:51.074Z,14.38
2017-12-27T21:17:18.709Z,13.60
2017-12-27T21:19:46.386Z,16.42
2017-12-27T21:22:14.036Z,14.35
2017-12-27T21:24:43.964Z,14.68
2017-12-27T21:27:11.633Z,15.40
2017-12-27T21:29:39.251Z,12.70
2017-12-27T21:32:06.913Z,15.40
2017-12-27T21:34:35.548Z,13.85
2017-12-27T21:37:03.244Z,15.13
2017-12-27T21:39:30.895Z,16.35
2017-12-27T21:41:58.542Z,13.48
2017-12-27T21:44:26.204Z,15.02
2017-12-27T21:46:53.886Z,15.85
2017-12-27T21:49:27.870Z,15.18
2017-12-27T21:51:55.580Z,15.48
2017-12-27T21:54:23.231Z,16.33
2017-12-27T21:56:50.902Z,15.43
2017-12-27T22:02:15.624Z,14.20
2017-12-27T22:04:43.247Z,13.30
2017-12-27T22:07:11.634Z,12.55
2017-12-27T22:09:39.288Z,14.52
2017-12-27T22:12:08.127Z,14.65
2017-12-27T22:14:36.700Z,13.18
2017-12-27T22:17:05.089Z,13.68
2017-12-27T22:19:32.730Z,15.55
2017-12-27T22:22:02.327Z,12.88
2017-12-27T22:24:29.968Z,12.80
2017-12-27T22:26:57.646Z,12.55
2017-12-27T22:29:25.344Z,14.40
2017-12-27T22:31:56.709Z,15.52
2017-12-27T22:34:24.373Z,12.00
2017-12-27T22:36:51.996Z,12.88
2017-12-27T22:39:19.658Z,13.27
2017-12-27T22:41:47.287Z,13.43
2017-12-27T22:44:14.915Z,14.43
2017-12-27T22:46:43.604Z,13.20
2017-12-27T22:49:11.232Z,13.95
2017-12-27T22:51:39.673Z,13.80
2017-12-27T22:54:07.307Z,13.75
2017-12-27T22:56:35.178Z,13.93
2017-12-27T22:59:02.841Z,13.70
2017-12-27T23:01:31.275Z,12.85
2017-12-27T23:03:58.929Z,14.30
2017-12-27T23:06:26.572Z,13.02
2017-12-27T23:08:54.197Z,12.95
2017-12-27T23:11:21.857Z,13.02
2017-12-27T23:13:49.484Z,12.10
2017-12-27T23:16:17.141Z,11.98
2017-12-27T23:18:44.766Z,14.10
2017-12-27T23:21:12.397Z,14.43
2017-12-27T23:23:40.050Z,13.85
2017-12-27T23:26:07.780Z,12.88
2017-12-27T23:28:36.554Z,13.80
2017-12-27T23:31:04.939Z,14.95
2017-12-27T23:33:32.561Z,14.32
2017-12-27T23:36:00.985Z,13.93
2017-12-27T23:38:28.618Z,12.35
2017-12-27T23:40:56.286Z,12.55
2017-12-27T23:43:23.913Z,14.05
2017-12-27T23:45:51.574Z,16.67
2017-12-27T23:48:19.233Z,16.00
2017-12-27T23:50:47.101Z,14.48
2017-12-27T23:53:14.773Z,14.27
2017-12-27T23:55:42.398Z,14.38
2017-12-27T23:58:10.802Z,15.57
